sensor_id;sensor_type;location;lat;lon;timestamp;P1;durP1;ratioP1;P2;durP2;ratioP2
37787;SDS011;23627;53.302;-6.362;2023-06-22T00:02:15;2.30;;;1.55;;
37787;SDS011;23627;53.302;-6.362;2023-06-22T00:04:41;1.77;;;1.50;;
37787;SDS011;23627;53.302;-6.362;2023-06-22T00:07:07;2.13;;;1.40;;
37787;SDS011;23627;53.302;-6.362;2023-06-22T00:09:33;2.45;;;1.60;;
37787;SDS011;23627;53.302;-6.362;2023-06-22T00:11:59;2.95;;;1.50;;
37787;SDS011;23627;53.302;-6.362;2023-06-22T00:14:25;1.90;;;1.63;;
37787;SDS011;23627;53.302;-6.362;2023-06-22T00:16:51;2.17;;;1.58;;
37787;SDS011;23627;53.302;-6.362;2023-06-22T00:19:20;2.63;;;1.80;;
37787;SDS011;23627;53.302;-6.362;2023-06-22T00:21:47;3.03;;;1.73;;
37787;SDS011;23627;53.302;-6.362;2023-06-22T00:24:17;2.13;;;1.55;;
37787;SDS011;23627;53.302;-6.362;2023-06-22T00:26:44;1.95;;;1.50;;
37787;SDS011;23627;53.302;-6.362;2023-06-22T00:29:10;2.53;;;1.80;;
37787;SDS011;23627;53.302;-6.362;2023-06-22T00:31:36;2.03;;;1.50;;
37787;SDS011;23627;53.302;-6.362;2023-06-22T00:34:02;3.08;;;1.88;;
37787;SDS011;23627;53.302;-6.362;2023-06-22T00:36:28;2.00;;;1.65;;
37787;SDS011;23627;53.302;-6.362;2023-06-22T00:38:53;1.83;;;1.60;;
37787;SDS011;23627;53.302;-6.362;2023-06-22T00:41:19;3.88;;;1.75;;
37787;SDS011;23627;53.302;-6.362;2023-06-22T00:43:45;2.10;;;1.60;;
37787;SDS011;23627;53.302;-6.362;2023-06-22T00:46:11;3.05;;;1.73;;
37787;SDS011;23627;53.302;-6.362;2023-06-22T00:48:37;1.98;;;1.60;;
37787;SDS011;23627;53.302;-6.362;2023-06-22T00:51:05;2.00;;;1.65;;
37787;SDS011;23627;53.302;-6.362;2023-06-22T00:53:31;2.47;;;1.65;;
37787;SDS011;23627;53.302;-6.362;2023-06-22T00:56:00;2.25;;;1.73;;
37787;SDS011;23627;53.302;-6.362;2023-06-22T00:58:28;1.80;;;1.60;;
37787;SDS011;23627;53.302;-6.362;2023-06-22T01:00:54;2.20;;;1.70;;
37787;SDS011;23627;53.302;-6.362;2023-06-22T01:03:20;2.15;;;1.63;;
37787;SDS011;23627;53.302;-6.362;2023-06-22T01:05:45;2.25;;;1.83;;
37787;SDS011;23627;53.302;-6.362;2023-06-22T01:13:45;2.47;;;1.75;;
37787;SDS011;23627;53.302;-6.362;2023-06-22T01:16:20;2.28;;;1.67;;
37787;SDS011;23627;53.302;-6.362;2023-06-22T01:18:50;2.30;;;1.70;;
37787;SDS011;23627;53.302;-6.362;2023-06-22T01:21:20;2.13;;;1.70;;
37787;SDS011;23627;53.302;-6.362;2023-06-22T01:26:42;2.13;;;1.50;;
37787;SDS011;23627;53.302;-6.362;2023-06-22T01:29:47;1.90;;;1.58;;
37787;SDS011;23627;53.302;-6.362;2023-06-22T01:32:16;2.00;;;1.80;;
37787;SDS011;23627;53.302;-6.362;2023-06-22T01:34:43;2.10;;;1.77;;
37787;SDS011;23627;53.302;-6.362;2023-06-22T01:37:09;2.15;;;1.60;;
37787;SDS011;23627;53.302;-6.362;2023-06-22T01:39:35;1.73;;;1.58;;
37787;SDS011;23627;53.302;-6.362;2023-06-22T01:42:02;2.63;;;1.90;;
37787;SDS011;23627;53.302;-6.362;2023-06-22T01:44:28;2.38;;;1.60;;
37787;SDS011;23627;53.302;-6.362;2023-06-22T01:46:54;2.13;;;1.70;;
37787;SDS011;23627;53.302;-6.362;2023-06-22T01:49:20;2.03;;;1.70;;
37787;SDS011;23627;53.302;-6.362;2023-06-22T01:51:46;2.10;;;1.67;;
37787;SDS011;23627;53.302;-6.362;2023-06-22T01:54:12;2.72;;;1.88;;
37787;SDS011;23627;53.302;-6.362;2023-06-22T01:56:38;2.40;;;1.70;;
37787;SDS011;23627;53.302;-6.362;2023-06-22T02:01:56;2.92;;;1.77;;
37787;SDS011;23627;53.302;-6.362;2023-06-22T02:04:27;2.42;;;1.65;;
37787;SDS011;23627;53.302;-6.362;2023-06-22T02:07:08;2.78;;;1.67;;
37787;SDS011;23627;53.302;-6.362;2023-06-22T02:09:38;2.28;;;1.65;;
37787;SDS011;23627;53.302;-6.362;2023-06-22T02:12:09;1.75;;;1.58;;
37787;SDS011;23627;53.302;-6.362;2023-06-22T02:14:37;2.08;;;1.60;;
37787;SDS011;23627;53.302;-6.362;2023-06-22T02:17:04;2.50;;;1.85;;
37787;SDS011;23627;53.302;-6.362;2023-06-22T02:19:32;2.47;;;1.70;;
37787;SDS011;23627;53.302;-6.362;2023-06-22T02:22:02;2.42;;;1.80;;
37787;SDS011;23627;53.302;-6.362;2023-06-22T02:24:28;2.70;;;1.73;;
37787;SDS011;23627;53.302;-6.362;2023-06-22T02:26:57;2.35;;;1.80;;
37787;SDS011;23627;53.302;-6.362;2023-06-22T02:29:23;2.88;;;1.90;;
37787;SDS011;23627;53.302;-6.362;2023-06-22T02:31:49;2.80;;;1.90;;
37787;SDS011;23627;53.302;-6.362;2023-06-22T02:34:15;2.47;;;1.70;;
37787;SDS011;23627;53.302;-6.362;2023-06-22T02:36:46;2.00;;;1.80;;
37787;SDS011;23627;53.302;-6.362;2023-06-22T02:39:19;2.40;;;2.00;;
37787;SDS011;23627;53.302;-6.362;2023-06-22T02:41:45;3.00;;;1.80;;
37787;SDS011;23627;53.302;-6.362;2023-06-22T02:44:10;2.20;;;1.73;;
37787;SDS011;23627;53.302;-6.362;2023-06-22T02:46:36;3.15;;;1.83;;
37787;SDS011;23627;53.302;-6.362;2023-06-22T02:49:02;2.72;;;1.60;;
37787;SDS011;23627;53.302;-6.362;2023-06-22T02:51:28;2.50;;;1.90;;
37787;SDS011;23627;53.302;-6.362;2023-06-22T02:53:53;2.42;;;1.60;;
37787;SDS011;23627;53.302;-6.362;2023-06-22T02:56:22;2.28;;;1.70;;
37787;SDS011;23627;53.302;-6.362;2023-06-22T02:58:50;1.75;;;1.65;;
37787;SDS011;23627;53.302;-6.362;2023-06-22T03:01:16;1.90;;;1.70;;
37787;SDS011;23627;53.302;-6.362;2023-06-22T03:03:42;2.55;;;1.85;;
37787;SDS011;23627;53.302;-6.362;2023-06-22T03:06:08;3.20;;;2.08;;
37787;SDS011;23627;53.302;-6.362;2023-06-22T03:08:38;2.55;;;1.77;;
37787;SDS011;23627;53.302;-6.362;2023-06-22T03:11:06;3.03;;;1.73;;
37787;SDS011;23627;53.302;-6.362;2023-06-22T03:13:32;2.10;;;1.80;;
37787;SDS011;23627;53.302;-6.362;2023-06-22T03:15:58;2.85;;;1.85;;
37787;SDS011;23627;53.302;-6.362;2023-06-22T03:18:24;2.53;;;1.60;;
37787;SDS011;23627;53.302;-6.362;2023-06-22T03:20:50;1.85;;;1.58;;
37787;SDS011;23627;53.302;-6.362;2023-06-22T03:23:16;2.67;;;1.60;;
37787;SDS011;23627;53.302;-6.362;2023-06-22T03:25:41;3.03;;;1.90;;
37787;SDS011;23627;53.302;-6.362;2023-06-22T03:28:09;2.70;;;1.90;;
37787;SDS011;23627;53.302;-6.362;2023-06-22T03:30:35;2.67;;;1.80;;
37787;SDS011;23627;53.302;-6.362;2023-06-22T03:33:01;2.38;;;1.85;;
37787;SDS011;23627;53.302;-6.362;2023-06-22T03:35:26;2.47;;;2.00;;
37787;SDS011;23627;53.302;-6.362;2023-06-22T03:37:53;2.58;;;1.70;;
37787;SDS011;23627;53.302;-6.362;2023-06-22T03:40:19;2.28;;;1.67;;
37787;SDS011;23627;53.302;-6.362;2023-06-22T03:42:45;2.20;;;1.77;;
37787;SDS011;23627;53.302;-6.362;2023-06-22T03:45:11;2.17;;;1.70;;
37787;SDS011;23627;53.302;-6.362;2023-06-22T03:47:36;1.65;;;1.52;;
37787;SDS011;23627;53.302;-6.362;2023-06-22T03:50:02;2.63;;;1.73;;
37787;SDS011;23627;53.302;-6.362;2023-06-22T03:52:29;2.20;;;1.77;;
37787;SDS011;23627;53.302;-6.362;2023-06-22T03:54:55;2.35;;;1.85;;
37787;SDS011;23627;53.302;-6.362;2023-06-22T03:57:21;2.80;;;1.90;;
37787;SDS011;23627;53.302;-6.362;2023-06-22T03:59:47;1.80;;;1.60;;
37787;SDS011;23627;53.302;-6.362;2023-06-22T04:02:12;3.25;;;1.95;;
37787;SDS011;23627;53.302;-6.362;2023-06-22T04:04:38;2.58;;;1.83;;
37787;SDS011;23627;53.302;-6.362;2023-06-22T04:07:04;3.63;;;2.00;;
37787;SDS011;23627;53.302;-6.362;2023-06-22T04:09:30;3.83;;;1.92;;
37787;SDS011;23627;53.302;-6.362;2023-06-22T04:11:56;2.22;;;1.70;;
37787;SDS011;23627;53.302;-6.362;2023-06-22T04:14:22;1.90;;;1.60;;
37787;SDS011;23627;53.302;-6.362;2023-06-22T04:16:48;3.45;;;1.83;;
37787;SDS011;23627;53.302;-6.362;2023-06-22T04:19:13;1.70;;;1.40;;
37787;SDS011;23627;53.302;-6.362;2023-06-22T04:21:43;2.08;;;1.80;;
37787;SDS011;23627;53.302;-6.362;2023-06-22T04:24:13;2.90;;;2.10;;
37787;SDS011;23627;53.302;-6.362;2023-06-22T04:26:39;2.67;;;1.85;;
37787;SDS011;23627;53.302;-6.362;2023-06-22T04:29:07;2.30;;;1.80;;
37787;SDS011;23627;53.302;-6.362;2023-06-22T04:31:36;2.78;;;1.90;;
37787;SDS011;23627;53.302;-6.362;2023-06-22T04:34:03;1.92;;;1.65;;
37787;SDS011;23627;53.302;-6.362;2023-06-22T04:36:39;2.38;;;1.83;;
37787;SDS011;23627;53.302;-6.362;2023-06-22T04:39:10;2.20;;;1.60;;
37787;SDS011;23627;53.302;-6.362;2023-06-22T04:41:37;1.80;;;1.40;;
37787;SDS011;23627;53.302;-6.362;2023-06-22T04:46:36;2.20;;;1.85;;
37787;SDS011;23627;53.302;-6.362;2023-06-22T04:49:12;2.47;;;1.60;;
37787;SDS011;23627;53.302;-6.362;2023-06-22T04:51:41;3.78;;;1.90;;
37787;SDS011;23627;53.302;-6.362;2023-06-22T04:54:07;2.85;;;1.70;;
37787;SDS011;23627;53.302;-6.362;2023-06-22T04:56:34;2.13;;;1.77;;
37787;SDS011;23627;53.302;-6.362;2023-06-22T04:59:00;2.35;;;1.90;;
37787;SDS011;23627;53.302;-6.362;2023-06-22T05:01:26;2.33;;;1.90;;
37787;SDS011;23627;53.302;-6.362;2023-06-22T05:03:52;1.75;;;1.60;;
37787;SDS011;23627;53.302;-6.362;2023-06-22T05:06:22;2.20;;;1.70;;
37787;SDS011;23627;53.302;-6.362;2023-06-22T05:08:58;2.00;;;1.80;;
37787;SDS011;23627;53.302;-6.362;2023-06-22T05:11:27;2.58;;;1.70;;
37787;SDS011;23627;53.302;-6.362;2023-06-22T05:13:53;2.95;;;1.73;;
37787;SDS011;23627;53.302;-6.362;2023-06-22T05:16:20;2.10;;;1.90;;
37787;SDS011;23627;53.302;-6.362;2023-06-22T05:18:55;2.30;;;1.92;;
37787;SDS011;23627;53.302;-6.362;2023-06-22T05:21:22;2.20;;;1.80;;
37787;SDS011;23627;53.302;-6.362;2023-06-22T05:23:49;2.05;;;1.83;;
37787;SDS011;23627;53.302;-6.362;2023-06-22T05:26:19;2.17;;;1.80;;
37787;SDS011;23627;53.302;-6.362;2023-06-22T05:28:46;3.08;;;2.22;;
37787;SDS011;23627;53.302;-6.362;2023-06-22T05:31:15;2.05;;;1.70;;
37787;SDS011;23627;53.302;-6.362;2023-06-22T05:33:41;2.05;;;1.85;;
37787;SDS011;23627;53.302;-6.362;2023-06-22T05:36:08;2.67;;;1.70;;
37787;SDS011;23627;53.302;-6.362;2023-06-22T05:38:35;2.10;;;1.70;;
37787;SDS011;23627;53.302;-6.362;2023-06-22T05:41:01;3.38;;;2.00;;
37787;SDS011;23627;53.302;-6.362;2023-06-22T05:43:27;2.63;;;1.90;;
37787;SDS011;23627;53.302;-6.362;2023-06-22T05:45:53;2.30;;;1.95;;
37787;SDS011;23627;53.302;-6.362;2023-06-22T05:48:18;2.42;;;1.95;;
37787;SDS011;23627;53.302;-6.362;2023-06-22T05:50:44;3.17;;;1.83;;
37787;SDS011;23627;53.302;-6.362;2023-06-22T05:53:10;3.67;;;2.30;;
37787;SDS011;23627;53.302;-6.362;2023-06-22T05:55:36;3.28;;;2.28;;
37787;SDS011;23627;53.302;-6.362;2023-06-22T05:58:02;3.28;;;2.03;;
37787;SDS011;23627;53.302;-6.362;2023-06-22T06:00:30;2.65;;;2.00;;
37787;SDS011;23627;53.302;-6.362;2023-06-22T06:02:56;3.45;;;2.47;;
37787;SDS011;23627;53.302;-6.362;2023-06-22T06:05:22;4.10;;;2.75;;
37787;SDS011;23627;53.302;-6.362;2023-06-22T06:07:50;3.50;;;2.30;;
37787;SDS011;23627;53.302;-6.362;2023-06-22T06:10:16;3.60;;;2.80;;
37787;SDS011;23627;53.302;-6.362;2023-06-22T06:12:41;3.55;;;2.78;;
37787;SDS011;23627;53.302;-6.362;2023-06-22T06:15:07;4.47;;;3.00;;
37787;SDS011;23627;53.302;-6.362;2023-06-22T06:17:33;4.30;;;3.10;;
37787;SDS011;23627;53.302;-6.362;2023-06-22T06:19:59;3.47;;;2.72;;
37787;SDS011;23627;53.302;-6.362;2023-06-22T06:22:26;4.57;;;3.33;;
37787;SDS011;23627;53.302;-6.362;2023-06-22T06:24:51;5.72;;;3.90;;
37787;SDS011;23627;53.302;-6.362;2023-06-22T06:27:17;6.45;;;4.03;;
37787;SDS011;23627;53.302;-6.362;2023-06-22T06:29:43;5.40;;;3.90;;
37787;SDS011;23627;53.302;-6.362;2023-06-22T06:32:13;5.13;;;3.90;;
37787;SDS011;23627;53.302;-6.362;2023-06-22T06:34:38;5.50;;;3.83;;
37787;SDS011;23627;53.302;-6.362;2023-06-22T06:37:05;4.80;;;4.00;;
37787;SDS011;23627;53.302;-6.362;2023-06-22T06:39:31;5.68;;;4.38;;
37787;SDS011;23627;53.302;-6.362;2023-06-22T06:41:56;4.43;;;3.67;;
37787;SDS011;23627;53.302;-6.362;2023-06-22T06:44:22;4.70;;;4.20;;
37787;SDS011;23627;53.302;-6.362;2023-06-22T06:46:48;4.95;;;3.83;;
37787;SDS011;23627;53.302;-6.362;2023-06-22T06:49:13;5.50;;;3.88;;
37787;SDS011;23627;53.302;-6.362;2023-06-22T06:51:39;5.18;;;4.28;;
37787;SDS011;23627;53.302;-6.362;2023-06-22T06:54:05;4.63;;;4.13;;
37787;SDS011;23627;53.302;-6.362;2023-06-22T06:56:31;6.32;;;4.65;;
37787;SDS011;23627;53.302;-6.362;2023-06-22T06:58:58;5.47;;;4.38;;
37787;SDS011;23627;53.302;-6.362;2023-06-22T07:01:24;5.53;;;4.32;;
37787;SDS011;23627;53.302;-6.362;2023-06-22T07:03:50;5.60;;;4.05;;
37787;SDS011;23627;53.302;-6.362;2023-06-22T07:06:16;5.03;;;4.53;;
37787;SDS011;23627;53.302;-6.362;2023-06-22T07:08:41;5.68;;;4.43;;
37787;SDS011;23627;53.302;-6.362;2023-06-22T07:11:07;6.30;;;4.38;;
37787;SDS011;23627;53.302;-6.362;2023-06-22T07:13:33;5.25;;;4.10;;
37787;SDS011;23627;53.302;-6.362;2023-06-22T07:15:59;5.47;;;4.40;;
37787;SDS011;23627;53.302;-6.362;2023-06-22T07:18:25;4.93;;;4.28;;
37787;SDS011;23627;53.302;-6.362;2023-06-22T07:20:51;4.60;;;3.88;;
37787;SDS011;23627;53.302;-6.362;2023-06-22T07:23:17;6.20;;;4.28;;
37787;SDS011;23627;53.302;-6.362;2023-06-22T07:25:43;5.28;;;3.83;;
37787;SDS011;23627;53.302;-6.362;2023-06-22T07:28:09;4.43;;;3.50;;
37787;SDS011;23627;53.302;-6.362;2023-06-22T07:30:34;5.35;;;3.67;;
37787;SDS011;23627;53.302;-6.362;2023-06-22T07:33:01;4.32;;;3.30;;
37787;SDS011;23627;53.302;-6.362;2023-06-22T07:35:33;3.67;;;3.30;;
37787;SDS011;23627;53.302;-6.362;2023-06-22T07:38:02;3.70;;;3.20;;
37787;SDS011;23627;53.302;-6.362;2023-06-22T07:40:28;3.58;;;3.20;;
37787;SDS011;23627;53.302;-6.362;2023-06-22T07:42:54;4.10;;;3.10;;
37787;SDS011;23627;53.302;-6.362;2023-06-22T07:45:22;3.70;;;3.03;;
37787;SDS011;23627;53.302;-6.362;2023-06-22T07:47:50;4.80;;;3.40;;
37787;SDS011;23627;53.302;-6.362;2023-06-22T07:50:16;4.78;;;3.28;;
37787;SDS011;23627;53.302;-6.362;2023-06-22T07:52:42;3.70;;;2.90;;
37787;SDS011;23627;53.302;-6.362;2023-06-22T07:55:13;3.30;;;2.90;;
37787;SDS011;23627;53.302;-6.362;2023-06-22T07:57:39;3.85;;;3.00;;
37787;SDS011;23627;53.302;-6.362;2023-06-22T08:00:07;3.30;;;2.70;;
37787;SDS011;23627;53.302;-6.362;2023-06-22T08:02:39;3.38;;;2.45;;
37787;SDS011;23627;53.302;-6.362;2023-06-22T08:05:05;3.20;;;2.80;;
37787;SDS011;23627;53.302;-6.362;2023-06-22T08:07:33;4.05;;;2.88;;
37787;SDS011;23627;53.302;-6.362;2023-06-22T08:10:00;2.88;;;2.58;;
37787;SDS011;23627;53.302;-6.362;2023-06-22T08:12:26;3.83;;;2.72;;
37787;SDS011;23627;53.302;-6.362;2023-06-22T08:14:52;2.90;;;2.60;;
37787;SDS011;23627;53.302;-6.362;2023-06-22T08:17:17;3.22;;;2.53;;
37787;SDS011;23627;53.302;-6.362;2023-06-22T08:19:43;3.15;;;2.50;;
37787;SDS011;23627;53.302;-6.362;2023-06-22T08:22:09;2.67;;;2.40;;
37787;SDS011;23627;53.302;-6.362;2023-06-22T08:24:34;2.63;;;2.42;;
37787;SDS011;23627;53.302;-6.362;2023-06-22T08:27:03;2.85;;;2.55;;
37787;SDS011;23627;53.302;-6.362;2023-06-22T08:29:33;3.05;;;2.45;;
37787;SDS011;23627;53.302;-6.362;2023-06-22T08:31:59;2.85;;;2.50;;
37787;SDS011;23627;53.302;-6.362;2023-06-22T08:34:25;3.72;;;2.55;;
37787;SDS011;23627;53.302;-6.362;2023-06-22T08:36:52;3.13;;;2.50;;
37787;SDS011;23627;53.302;-6.362;2023-06-22T08:39:19;3.35;;;2.35;;
37787;SDS011;23627;53.302;-6.362;2023-06-22T08:41:45;3.00;;;2.30;;
37787;SDS011;23627;53.302;-6.362;2023-06-22T08:44:16;2.70;;;2.17;;
37787;SDS011;23627;53.302;-6.362;2023-06-22T08:46:43;3.22;;;2.30;;
37787;SDS011;23627;53.302;-6.362;2023-06-22T08:49:09;2.50;;;2.20;;
37787;SDS011;23627;53.302;-6.362;2023-06-22T08:51:35;3.30;;;2.67;;
37787;SDS011;23627;53.302;-6.362;2023-06-22T08:54:01;2.58;;;2.38;;
37787;SDS011;23627;53.302;-6.362;2023-06-22T08:56:26;2.60;;;2.40;;
37787;SDS011;23627;53.302;-6.362;2023-06-22T08:58:52;3.55;;;2.20;;
37787;SDS011;23627;53.302;-6.362;2023-06-22T09:01:18;3.05;;;2.28;;
37787;SDS011;23627;53.302;-6.362;2023-06-22T09:03:46;2.97;;;2.42;;
37787;SDS011;23627;53.302;-6.362;2023-06-22T09:06:19;2.75;;;2.38;;
37787;SDS011;23627;53.302;-6.362;2023-06-22T09:08:46;3.90;;;2.50;;
37787;SDS011;23627;53.302;-6.362;2023-06-22T09:11:12;3.25;;;2.50;;
37787;SDS011;23627;53.302;-6.362;2023-06-22T09:13:38;3.25;;;2.50;;
37787;SDS011;23627;53.302;-6.362;2023-06-22T09:16:04;3.20;;;2.50;;
37787;SDS011;23627;53.302;-6.362;2023-06-22T09:18:30;2.83;;;2.25;;
37787;SDS011;23627;53.302;-6.362;2023-06-22T09:20:56;2.92;;;2.20;;
37787;SDS011;23627;53.302;-6.362;2023-06-22T09:23:22;3.72;;;2.78;;
37787;SDS011;23627;53.302;-6.362;2023-06-22T09:25:48;2.78;;;2.40;;
37787;SDS011;23627;53.302;-6.362;2023-06-22T09:28:16;3.72;;;2.28;;
37787;SDS011;23627;53.302;-6.362;2023-06-22T09:30:45;3.50;;;2.42;;
37787;SDS011;23627;53.302;-6.362;2023-06-22T09:33:11;2.92;;;2.30;;
37787;SDS011;23627;53.302;-6.362;2023-06-22T09:35:36;3.30;;;2.38;;
37787;SDS011;23627;53.302;-6.362;2023-06-22T09:38:02;2.38;;;2.17;;
37787;SDS011;23627;53.302;-6.362;2023-06-22T09:40:28;2.97;;;2.15;;
37787;SDS011;23627;53.302;-6.362;2023-06-22T09:42:54;2.70;;;2.20;;
37787;SDS011;23627;53.302;-6.362;2023-06-22T09:45:19;4.03;;;2.20;;
37787;SDS011;23627;53.302;-6.362;2023-06-22T09:47:45;3.67;;;2.30;;
37787;SDS011;23627;53.302;-6.362;2023-06-22T09:50:11;2.70;;;2.20;;
37787;SDS011;23627;53.302;-6.362;2023-06-22T09:52:37;3.28;;;2.20;;
37787;SDS011;23627;53.302;-6.362;2023-06-22T09:55:03;2.92;;;2.03;;
37787;SDS011;23627;53.302;-6.362;2023-06-22T09:57:29;2.50;;;2.17;;
37787;SDS011;23627;53.302;-6.362;2023-06-22T09:59:55;3.15;;;2.30;;
37787;SDS011;23627;53.302;-6.362;2023-06-22T10:02:21;3.40;;;2.15;;
37787;SDS011;23627;53.302;-6.362;2023-06-22T10:04:47;3.28;;;2.53;;
37787;SDS011;23627;53.302;-6.362;2023-06-22T10:07:13;3.22;;;2.28;;
37787;SDS011;23627;53.302;-6.362;2023-06-22T10:09:39;2.40;;;2.20;;
37787;SDS011;23627;53.302;-6.362;2023-06-22T10:12:05;3.30;;;2.20;;
37787;SDS011;23627;53.302;-6.362;2023-06-22T10:14:31;2.83;;;2.40;;
37787;SDS011;23627;53.302;-6.362;2023-06-22T10:16:57;2.47;;;2.28;;
37787;SDS011;23627;53.302;-6.362;2023-06-22T10:19:22;2.70;;;2.30;;
37787;SDS011;23627;53.302;-6.362;2023-06-22T10:21:48;3.75;;;2.17;;
37787;SDS011;23627;53.302;-6.362;2023-06-22T10:24:14;3.63;;;2.20;;
37787;SDS011;23627;53.302;-6.362;2023-06-22T10:26:40;2.80;;;1.92;;
37787;SDS011;23627;53.302;-6.362;2023-06-22T10:29:05;3.47;;;2.40;;
37787;SDS011;23627;53.302;-6.362;2023-06-22T10:31:31;2.45;;;2.10;;
37787;SDS011;23627;53.302;-6.362;2023-06-22T10:33:57;2.90;;;2.30;;
37787;SDS011;23627;53.302;-6.362;2023-06-22T10:36:22;3.65;;;2.50;;
37787;SDS011;23627;53.302;-6.362;2023-06-22T10:38:48;2.85;;;2.35;;
37787;SDS011;23627;53.302;-6.362;2023-06-22T10:41:14;3.35;;;2.55;;
37787;SDS011;23627;53.302;-6.362;2023-06-22T10:43:41;3.65;;;2.45;;
37787;SDS011;23627;53.302;-6.362;2023-06-22T10:46:07;2.92;;;2.22;;
37787;SDS011;23627;53.302;-6.362;2023-06-22T10:48:32;2.65;;;2.30;;
37787;SDS011;23627;53.302;-6.362;2023-06-22T10:50:58;3.75;;;2.20;;
37787;SDS011;23627;53.302;-6.362;2023-06-22T10:53:24;2.53;;;2.22;;
37787;SDS011;23627;53.302;-6.362;2023-06-22T10:55:50;3.53;;;2.40;;
37787;SDS011;23627;53.302;-6.362;2023-06-22T10:58:17;3.38;;;2.33;;
37787;SDS011;23627;53.302;-6.362;2023-06-22T11:00:44;2.45;;;2.25;;
37787;SDS011;23627;53.302;-6.362;2023-06-22T11:03:10;2.40;;;2.15;;
37787;SDS011;23627;53.302;-6.362;2023-06-22T11:05:36;2.83;;;2.30;;
37787;SDS011;23627;53.302;-6.362;2023-06-22T11:08:01;2.72;;;2.25;;
37787;SDS011;23627;53.302;-6.362;2023-06-22T11:10:27;2.92;;;2.35;;
37787;SDS011;23627;53.302;-6.362;2023-06-22T11:12:53;2.50;;;2.30;;
37787;SDS011;23627;53.302;-6.362;2023-06-22T11:15:20;3.72;;;2.22;;
37787;SDS011;23627;53.302;-6.362;2023-06-22T11:17:46;2.33;;;2.10;;
37787;SDS011;23627;53.302;-6.362;2023-06-22T11:20:11;3.13;;;2.40;;
37787;SDS011;23627;53.302;-6.362;2023-06-22T11:22:38;3.20;;;2.13;;
37787;SDS011;23627;53.302;-6.362;2023-06-22T11:25:07;3.38;;;1.92;;
37787;SDS011;23627;53.302;-6.362;2023-06-22T11:27:33;2.75;;;2.03;;
37787;SDS011;23627;53.302;-6.362;2023-06-22T11:29:59;2.50;;;2.17;;
37787;SDS011;23627;53.302;-6.362;2023-06-22T11:32:25;3.70;;;2.20;;
37787;SDS011;23627;53.302;-6.362;2023-06-22T11:34:51;3.17;;;2.28;;
37787;SDS011;23627;53.302;-6.362;2023-06-22T11:37:17;3.22;;;2.00;;
37787;SDS011;23627;53.302;-6.362;2023-06-22T11:39:43;4.15;;;2.45;;
37787;SDS011;23627;53.302;-6.362;2023-06-22T11:42:09;2.90;;;2.20;;
37787;SDS011;23627;53.302;-6.362;2023-06-22T11:44:35;2.60;;;2.10;;
37787;SDS011;23627;53.302;-6.362;2023-06-22T11:47:01;2.95;;;2.30;;
37787;SDS011;23627;53.302;-6.362;2023-06-22T11:49:28;3.42;;;2.10;;
37787;SDS011;23627;53.302;-6.362;2023-06-22T11:51:58;3.13;;;2.67;;
37787;SDS011;23627;53.302;-6.362;2023-06-22T11:54:23;3.53;;;2.33;;
37787;SDS011;23627;53.302;-6.362;2023-06-22T11:56:49;3.10;;;2.05;;
37787;SDS011;23627;53.302;-6.362;2023-06-22T11:59:15;2.30;;;2.05;;
37787;SDS011;23627;53.302;-6.362;2023-06-22T12:01:41;2.42;;;2.10;;
37787;SDS011;23627;53.302;-6.362;2023-06-22T12:04:06;2.60;;;2.10;;
37787;SDS011;23627;53.302;-6.362;2023-06-22T12:06:32;4.13;;;2.28;;
37787;SDS011;23627;53.302;-6.362;2023-06-22T12:09:01;2.53;;;2.22;;
37787;SDS011;23627;53.302;-6.362;2023-06-22T12:11:29;2.58;;;1.83;;
37787;SDS011;23627;53.302;-6.362;2023-06-22T12:13:55;2.75;;;1.92;;
37787;SDS011;23627;53.302;-6.362;2023-06-22T12:16:21;3.20;;;2.38;;
37787;SDS011;23627;53.302;-6.362;2023-06-22T12:18:47;4.25;;;2.25;;
37787;SDS011;23627;53.302;-6.362;2023-06-22T12:21:13;3.97;;;2.15;;
37787;SDS011;23627;53.302;-6.362;2023-06-22T12:23:39;2.50;;;2.10;;
37787;SDS011;23627;53.302;-6.362;2023-06-22T12:26:04;3.15;;;2.00;;
37787;SDS011;23627;53.302;-6.362;2023-06-22T12:28:30;2.63;;;2.05;;
37787;SDS011;23627;53.302;-6.362;2023-06-22T12:30:56;2.53;;;2.20;;
37787;SDS011;23627;53.302;-6.362;2023-06-22T12:33:22;3.13;;;2.20;;
37787;SDS011;23627;53.302;-6.362;2023-06-22T12:35:47;3.30;;;2.00;;
37787;SDS011;23627;53.302;-6.362;2023-06-22T12:38:14;2.83;;;2.10;;
37787;SDS011;23627;53.302;-6.362;2023-06-22T12:40:39;2.97;;;2.15;;
37787;SDS011;23627;53.302;-6.362;2023-06-22T12:43:05;3.38;;;2.20;;
37787;SDS011;23627;53.302;-6.362;2023-06-22T12:45:32;2.63;;;2.08;;
37787;SDS011;23627;53.302;-6.362;2023-06-22T12:47:59;3.97;;;2.38;;
37787;SDS011;23627;53.302;-6.362;2023-06-22T12:50:25;2.78;;;2.35;;
37787;SDS011;23627;53.302;-6.362;2023-06-22T12:52:51;2.30;;;2.10;;
37787;SDS011;23627;53.302;-6.362;2023-06-22T12:55:17;2.45;;;2.25;;
37787;SDS011;23627;53.302;-6.362;2023-06-22T12:57:43;3.65;;;2.00;;
37787;SDS011;23627;53.302;-6.362;2023-06-22T13:00:09;2.67;;;2.00;;
37787;SDS011;23627;53.302;-6.362;2023-06-22T13:02:35;3.08;;;2.00;;
37787;SDS011;23627;53.302;-6.362;2023-06-22T13:05:02;2.33;;;2.03;;
37787;SDS011;23627;53.302;-6.362;2023-06-22T13:07:30;3.42;;;2.30;;
37787;SDS011;23627;53.302;-6.362;2023-06-22T13:09:55;2.28;;;2.08;;
37787;SDS011;23627;53.302;-6.362;2023-06-22T13:12:21;2.20;;;2.00;;
37787;SDS011;23627;53.302;-6.362;2023-06-22T13:14:47;2.97;;;2.00;;
37787;SDS011;23627;53.302;-6.362;2023-06-22T13:17:13;3.70;;;2.10;;
37787;SDS011;23627;53.302;-6.362;2023-06-22T13:19:39;2.47;;;2.22;;
37787;SDS011;23627;53.302;-6.362;2023-06-22T13:22:05;2.35;;;2.15;;
37787;SDS011;23627;53.302;-6.362;2023-06-22T13:24:50;3.17;;;2.05;;
37787;SDS011;23627;53.302;-6.362;2023-06-22T13:27:16;2.88;;;1.90;;
37787;SDS011;23627;53.302;-6.362;2023-06-22T13:29:41;2.38;;;2.05;;
37787;SDS011;23627;53.302;-6.362;2023-06-22T13:32:07;2.35;;;2.00;;
37787;SDS011;23627;53.302;-6.362;2023-06-22T13:34:33;2.75;;;2.20;;
37787;SDS011;23627;53.302;-6.362;2023-06-22T13:36:59;2.10;;;1.90;;
37787;SDS011;23627;53.302;-6.362;2023-06-22T13:39:24;2.45;;;2.00;;
37787;SDS011;23627;53.302;-6.362;2023-06-22T13:41:50;2.75;;;1.95;;
37787;SDS011;23627;53.302;-6.362;2023-06-22T13:44:16;2.20;;;1.85;;
37787;SDS011;23627;53.302;-6.362;2023-06-22T13:46:42;2.10;;;1.90;;
37787;SDS011;23627;53.302;-6.362;2023-06-22T13:49:07;2.67;;;2.00;;
37787;SDS011;23627;53.302;-6.362;2023-06-22T13:51:33;3.20;;;2.05;;
37787;SDS011;23627;53.302;-6.362;2023-06-22T13:53:59;2.33;;;1.80;;
37787;SDS011;23627;53.302;-6.362;2023-06-22T13:56:24;2.30;;;2.10;;
37787;SDS011;23627;53.302;-6.362;2023-06-22T13:58:50;2.90;;;2.00;;
37787;SDS011;23627;53.302;-6.362;2023-06-22T14:01:16;2.22;;;2.03;;
37787;SDS011;23627;53.302;-6.362;2023-06-22T14:03:42;2.88;;;2.20;;
37787;SDS011;23627;53.302;-6.362;2023-06-22T14:06:10;2.28;;;1.90;;
37787;SDS011;23627;53.302;-6.362;2023-06-22T14:08:37;2.35;;;2.15;;
37787;SDS011;23627;53.302;-6.362;2023-06-22T14:11:02;3.15;;;1.75;;
37787;SDS011;23627;53.302;-6.362;2023-06-22T14:13:28;2.25;;;2.05;;
37787;SDS011;23627;53.302;-6.362;2023-06-22T14:15:54;2.50;;;2.10;;
37787;SDS011;23627;53.302;-6.362;2023-06-22T14:18:20;2.60;;;2.00;;
37787;SDS011;23627;53.302;-6.362;2023-06-22T14:20:47;2.53;;;2.08;;
37787;SDS011;23627;53.302;-6.362;2023-06-22T14:23:13;2.60;;;2.10;;
37787;SDS011;23627;53.302;-6.362;2023-06-22T14:25:39;2.55;;;2.03;;
37787;SDS011;23627;53.302;-6.362;2023-06-22T14:28:05;2.65;;;2.28;;
37787;SDS011;23627;53.302;-6.362;2023-06-22T14:30:31;2.10;;;1.90;;
37787;SDS011;23627;53.302;-6.362;2023-06-22T14:32:57;2.28;;;1.95;;
37787;SDS011;23627;53.302;-6.362;2023-06-22T14:35:22;3.13;;;2.05;;
37787;SDS011;23627;53.302;-6.362;2023-06-22T14:37:49;2.35;;;1.98;;
37787;SDS011;23627;53.302;-6.362;2023-06-22T14:40:15;2.90;;;2.20;;
37787;SDS011;23627;53.302;-6.362;2023-06-22T14:42:41;2.47;;;2.20;;
37787;SDS011;23627;53.302;-6.362;2023-06-22T14:45:07;1.85;;;1.75;;